createdAt,value
2022-09-24T00:00:02.622Z,68.37
2022-09-24T00:04:07.706Z,68.00
2022-09-24T00:08:12.770Z,67.63
2022-09-24T00:12:15.875Z,68.18
2022-09-24T00:16:21.052Z,68.07
2022-09-24T00:20:24.195Z,68.30
2022-09-24T00:24:47.333Z,68.10
2022-09-24T00:28:50.799Z,65.97
2022-09-24T00:32:54.639Z,67.78
2022-09-24T00:36:57.917Z,68.02
2022-09-24T00:41:04.888Z,68.02
2022-09-24T00:45:11.323Z,67.96
2022-09-24T00:49:16.762Z,67.98
2022-09-24T00:53:24.377Z,68.01
2022-09-24T00:57:29.360Z,67.99
2022-09-24T01:01:33.023Z,68.12
2022-09-24T01:05:37.383Z,68.09
2022-09-24T01:09:40.970Z,68.25
2022-09-24T01:14:02.669Z,67.99
2022-09-24T01:18:11.116Z,68.54
2022-09-24T01:22:28.474Z,68.24
2022-09-24T01:26:49.227Z,68.26
2022-09-24T01:31:00.737Z,68.43
2022-09-24T01:35:09.656Z,68.61
2022-09-24T01:39:15.492Z,68.48
2022-09-24T01:43:23.091Z,68.51
2022-09-24T01:47:34.910Z,68.42
2022-09-24T01:51:44.604Z,68.46
2022-09-24T01:55:52.922Z,68.38
2022-09-24T02:00:00.741Z,68.52
2022-09-24T02:04:12.433Z,68.49
2022-09-24T02:08:20.080Z,68.66
2022-09-24T02:12:30.150Z,69.18
2022-09-24T02:16:38.078Z,68.90
2022-09-24T02:20:45.105Z,68.75
2022-09-24T02:24:51.997Z,68.68
2022-09-24T02:28:55.209Z,68.56
2022-09-24T02:32:59.419Z,69.20
2022-09-24T02:37:07.227Z,69.09
2022-09-24T02:41:11.092Z,69.01
2022-09-24T02:45:14.658Z,69.17
2022-09-24T02:49:18.833Z,69.47
2022-09-24T02:53:23.296Z,69.15
2022-09-24T02:57:26.992Z,69.17
2022-09-24T03:01:30.178Z,69.18
2022-09-24T03:05:33.499Z,69.35
2022-09-24T03:09:37.822Z,69.27
2022-09-24T03:13:41.910Z,69.28
2022-09-24T03:17:44.902Z,69.39
2022-09-24T03:21:48.339Z,69.42
2022-09-24T03:25:52.745Z,69.27
2022-09-24T03:30:13.724Z,69.30
2022-09-24T03:34:16.784Z,69.38
2022-09-24T03:42:30.856Z,69.30
2022-09-24T03:46:34.251Z,69.13
2022-09-24T03:50:38.077Z,69.25
2022-09-24T03:54:41.556Z,69.53
2022-09-24T03:58:47.787Z,69.30
2022-09-24T04:02:51.770Z,69.33
2022-09-24T04:06:54.881Z,69.30
2022-09-24T04:10:58.383Z,69.24
2022-09-24T04:15:03.252Z,69.07
2022-09-24T04:19:08.689Z,68.81
2022-09-24T04:23:13.271Z,69.09
2022-09-24T04:27:16.326Z,68.97
2022-09-24T04:31:21.717Z,69.17
2022-09-24T04:35:25.188Z,69.24
2022-09-24T04:39:28.843Z,69.38
2022-09-24T04:43:32.460Z,69.39
2022-09-24T04:47:39.593Z,69.14
2022-09-24T04:51:42.854Z,69.64
2022-09-24T04:55:46.332Z,69.97
2022-09-24T04:59:49.671Z,70.09
2022-09-24T05:03:54.478Z,70.31
2022-09-24T05:07:59.167Z,70.20
2022-09-24T05:12:02.682Z,70.58
2022-09-24T05:16:06.668Z,70.59
2022-09-24T05:20:11.612Z,70.98
2022-09-24T05:24:15.274Z,70.85
2022-09-24T05:28:18.671Z,70.42
2022-09-24T05:32:22.346Z,70.54
2022-09-24T05:36:27.450Z,70.24
2022-09-24T05:40:48.743Z,69.86
2022-09-24T05:44:52.733Z,69.83
2022-09-24T05:48:56.092Z,69.85
2022-09-24T05:53:02.736Z,70.20
2022-09-24T05:57:06.236Z,70.30
2022-09-24T06:01:09.988Z,70.08
2022-09-24T06:05:13.779Z,69.89
2022-09-24T06:09:18.705Z,68.91
2022-09-24T06:13:22.671Z,68.96
2022-09-24T06:17:27.742Z,68.63
2022-09-24T06:21:30.919Z,68.42
2022-09-24T06:25:35.808Z,68.28
2022-09-24T06:29:39.272Z,68.45
2022-09-24T06:33:42.689Z,68.67
2022-09-24T06:37:46.193Z,68.69
2022-09-24T06:41:51.646Z,68.02
2022-09-24T06:45:57.299Z,67.67
2022-09-24T06:50:00.265Z,67.34
2022-09-24T06:54:03.856Z,66.83
2022-09-24T06:58:10.582Z,67.41
2022-09-24T07:02:14.159Z,66.77
2022-09-24T07:06:17.348Z,65.51
2022-09-24T07:10:21.578Z,64.76
2022-09-24T07:14:26.020Z,63.31
2022-09-24T07:18:29.523Z,62.47
2022-09-24T07:22:32.954Z,62.35
2022-09-24T07:26:36.035Z,61.40
2022-09-24T07:30:41.699Z,61.38
2022-09-24T07:34:46.564Z,60.65
2022-09-24T07:38:49.586Z,59.61
2022-09-24T07:42:53.163Z,59.25
2022-09-24T07:46:59.076Z,59.66
2022-09-24T07:51:02.728Z,59.94
2022-09-24T07:55:06.649Z,58.17
2022-09-24T07:59:11.835Z,57.21
2022-09-24T08:03:17.460Z,57.69
2022-09-24T08:07:20.966Z,55.77
2022-09-24T08:11:24.596Z,54.66
2022-09-24T08:15:27.684Z,53.80
2022-09-24T08:19:33.722Z,51.54
2022-09-24T08:23:38.356Z,50.84
2022-09-24T08:27:41.396Z,49.53
2022-09-24T08:31:45.069Z,49.23
2022-09-24T08:35:50.359Z,48.92
2022-09-24T08:39:53.578Z,49.13
2022-09-24T08:44:04.788Z,50.58
2022-09-24T08:48:14.366Z,48.76
2022-09-24T08:52:31.593Z,51.27
2022-09-24T08:56:37.962Z,48.69
2022-09-24T09:00:47.529Z,48.35
2022-09-24T09:05:01.984Z,48.99
2022-09-24T09:09:14.075Z,49.37
2022-09-24T09:13:23.136Z,48.12
2022-09-24T09:17:35.995Z,48.52
2022-09-24T09:21:42.442Z,46.35
2022-09-24T09:25:53.726Z,47.46
2022-09-24T09:30:00.356Z,47.87
2022-09-24T09:34:31.359Z,49.73
2022-09-24T09:42:46.365Z,45.80
2022-09-24T09:46:55.785Z,47.93
2022-09-24T09:51:05.109Z,47.44
2022-09-24T09:55:09.141Z,45.37
2022-09-24T09:59:23.530Z,47.77
2022-09-24T10:03:34.067Z,46.11
2022-09-24T10:07:46.544Z,47.86
2022-09-24T10:11:50.042Z,45.86
2022-09-24T10:15:57.544Z,47.70
2022-09-24T10:20:03.977Z,47.71
2022-09-24T10:24:14.104Z,48.57
2022-09-24T10:28:38.722Z,47.84
2022-09-24T10:32:43.431Z,45.15
2022-09-24T10:36:53.681Z,48.31
2022-09-24T10:40:57.407Z,47.36
2022-09-24T10:45:02.919Z,44.36
2022-09-24T10:49:19.002Z,47.22
2022-09-24T10:53:31.749Z,46.12
2022-09-24T10:57:39.742Z,49.41
2022-09-24T11:01:50.561Z,44.55
2022-09-24T11:06:03.009Z,44.55
2022-09-24T11:10:19.406Z,45.35
2022-09-24T11:14:49.046Z,46.63
2022-09-24T11:18:59.018Z,44.24
2022-09-24T11:23:29.029Z,46.74
2022-09-24T11:27:56.218Z,46.90
2022-09-24T11:32:12.076Z,45.10
2022-09-24T11:36:29.941Z,45.12
2022-09-24T11:40:52.603Z,45.65
2022-09-24T11:45:21.410Z,46.56
2022-09-24T11:49:44.798Z,45.25
2022-09-24T11:53:55.878Z,44.17
2022-09-24T11:58:13.862Z,45.20
2022-09-24T12:02:25.805Z,43.82
2022-09-24T12:06:33.640Z,44.97
2022-09-24T12:10:42.327Z,44.17
2022-09-24T12:14:52.755Z,44.92
2022-09-24T12:19:01.500Z,46.80
2022-09-24T12:23:11.474Z,45.67
2022-09-24T12:27:18.206Z,45.30
2022-09-24T12:31:47.880Z,45.18
2022-09-24T12:36:06.439Z,46.48
2022-09-24T12:40:26.492Z,46.66
2022-09-24T12:44:39.302Z,45.44
2022-09-24T12:48:46.232Z,44.88
2022-09-24T12:52:50.303Z,45.02
2022-09-24T12:56:53.505Z,45.39
2022-09-24T13:01:08.633Z,46.82
2022-09-24T13:05:29.398Z,46.87
2022-09-24T13:09:38.172Z,45.26
2022-09-24T13:13:43.620Z,44.40
2022-09-24T13:17:48.553Z,44.18
2022-09-24T13:21:57.666Z,44.79
2022-09-24T13:26:05.413Z,43.54
2022-09-24T13:30:19.872Z,44.02
2022-09-24T13:34:27.881Z,44.59
2022-09-24T13:38:36.437Z,46.29
2022-09-24T13:42:49.580Z,45.53
2022-09-24T13:46:58.916Z,44.32
2022-09-24T13:51:04.878Z,43.58
2022-09-24T13:55:19.230Z,45.42
2022-09-24T13:59:22.629Z,44.08
2022-09-24T14:03:28.109Z,43.65
2022-09-24T14:07:31.910Z,44.03
2022-09-24T14:11:36.938Z,43.92
2022-09-24T14:15:40.204Z,43.68
2022-09-24T14:19:43.836Z,44.30
2022-09-24T14:23:53.145Z,45.13
2022-09-24T14:28:00.622Z,45.47
2022-09-24T14:32:06.570Z,45.96
2022-09-24T14:36:13.900Z,45.74
2022-09-24T14:40:19.911Z,45.01
2022-09-24T14:44:27.643Z,46.01
2022-09-24T14:48:35.015Z,46.42
2022-09-24T14:52:40.771Z,46.96
2022-09-24T14:56:44.427Z,46.57
2022-09-24T15:00:51.474Z,46.19
2022-09-24T15:05:01.902Z,47.56
2022-09-24T15:09:21.467Z,48.11
2022-09-24T15:13:34.543Z,48.84
2022-09-24T15:17:39.255Z,49.49
2022-09-24T15:21:42.908Z,48.67
2022-09-24T15:25:46.072Z,49.88
2022-09-24T15:29:49.676Z,49.62
2022-09-24T15:33:54.995Z,51.64
2022-09-24T15:38:00.327Z,51.10
2022-09-24T15:47:36.587Z,52.42
2022-09-24T15:51:41.456Z,52.70
2022-09-24T15:55:45.295Z,53.25
2022-09-24T15:59:48.241Z,52.97
2022-09-24T16:03:54.196Z,54.51
2022-09-24T16:07:59.494Z,55.59
2022-09-24T16:12:03.496Z,55.04
2022-09-24T16:16:08.799Z,55.89
2022-09-24T16:20:12.552Z,55.95
2022-09-24T16:24:17.529Z,55.29
2022-09-24T16:28:21.046Z,56.57
2022-09-24T16:32:24.166Z,56.46
2022-09-24T16:36:27.863Z,56.83
2022-09-24T16:40:33.197Z,57.49
2022-09-24T16:44:36.885Z,57.47
2022-09-24T16:48:40.792Z,57.36
2022-09-24T16:52:45.544Z,57.74
2022-09-24T16:56:52.423Z,57.67
2022-09-24T17:00:55.896Z,59.05
2022-09-24T17:05:01.510Z,59.22
2022-09-24T17:09:23.386Z,59.82
2022-09-24T17:13:27.777Z,60.01
2022-09-24T17:17:31.206Z,60.39
2022-09-24T17:21:40.232Z,61.33
2022-09-24T17:25:45.807Z,61.14
2022-09-24T17:30:27.831Z,59.39
2022-09-24T17:34:32.938Z,61.98
2022-09-24T17:38:38.933Z,62.59
2022-09-24T17:42:46.352Z,62.88
2022-09-24T17:46:56.128Z,62.45
2022-09-24T17:51:00.880Z,61.56
2022-09-24T17:55:06.572Z,61.93
2022-09-24T17:59:12.266Z,61.88
2022-09-24T18:03:17.966Z,62.03
2022-09-24T18:07:21.107Z,61.79
2022-09-24T18:11:26.770Z,61.96
2022-09-24T18:15:31.266Z,61.60
2022-09-24T18:19:36.882Z,61.42
2022-09-24T18:23:41.248Z,61.50
2022-09-24T18:27:46.548Z,61.26
2022-09-24T18:31:52.242Z,61.32
2022-09-24T18:35:56.822Z,61.63
2022-09-24T18:40:00.285Z,61.78
2022-09-24T18:44:04.611Z,62.02
2022-09-24T18:48:07.842Z,62.25
2022-09-24T18:52:14.675Z,62.04
2022-09-24T18:56:18.109Z,62.84
2022-09-24T19:00:39.565Z,62.92
2022-09-24T19:04:43.099Z,62.45
2022-09-24T19:08:48.037Z,62.77
2022-09-24T19:12:54.002Z,62.70
2022-09-24T19:16:57.991Z,62.77
2022-09-24T19:21:01.222Z,62.60
2022-09-24T19:25:06.557Z,62.30
2022-09-24T19:29:09.787Z,62.59
2022-09-24T19:33:16.624Z,62.68
2022-09-24T19:37:20.106Z,63.16
2022-09-24T19:41:26.803Z,62.88
2022-09-24T19:45:31.976Z,63.12
2022-09-24T19:49:35.935Z,63.47
2022-09-24T19:53:39.371Z,64.27
2022-09-24T19:57:44.849Z,64.11
2022-09-24T20:01:48.487Z,64.04
2022-09-24T20:05:52.635Z,64.27
2022-09-24T20:09:56.228Z,64.29
2022-09-24T20:14:02.027Z,64.24
2022-09-24T20:18:05.720Z,64.61
2022-09-24T20:22:10.992Z,64.79
2022-09-24T20:26:35.595Z,64.52
2022-09-24T20:30:40.974Z,64.28
2022-09-24T20:34:44.532Z,64.35
2022-09-24T20:38:48.752Z,65.03
2022-09-24T20:42:52.276Z,65.19
2022-09-24T20:46:57.783Z,65.65
2022-09-24T20:51:01.029Z,65.58
2022-09-24T20:55:05.093Z,65.93
2022-09-24T20:59:08.884Z,66.01
2022-09-24T21:03:39.290Z,66.31
2022-09-24T21:07:40.153Z,66.13
2022-09-24T21:11:44.428Z,66.06
2022-09-24T21:16:03.304Z,66.49
2022-09-24T21:20:10.711Z,66.71
2022-09-24T21:24:16.262Z,66.93
2022-09-24T21:28:19.409Z,66.93
2022-09-24T21:32:22.914Z,67.01
2022-09-24T21:36:29.817Z,67.07
2022-09-24T21:40:35.347Z,67.25
2022-09-24T21:44:38.991Z,67.62
2022-09-24T21:48:42.503Z,67.71
2022-09-24T21:52:47.854Z,67.75
2022-09-24T21:56:51.447Z,67.77
2022-09-24T22:00:55.100Z,67.98
2022-09-24T22:04:58.586Z,68.05
2022-09-24T22:09:05.944Z,67.93
2022-09-24T22:13:10.240Z,68.41
2022-09-24T22:17:14.128Z,68.26
2022-09-24T22:21:17.141Z,68.52
2022-09-24T22:25:23.067Z,68.27
2022-09-24T22:29:26.507Z,68.13
2022-09-24T22:33:48.144Z,67.84
2022-09-24T22:37:51.928Z,68.04
2022-09-24T22:41:56.850Z,68.29
2022-09-24T22:46:00.045Z,68.64
2022-09-24T22:50:03.632Z,68.71
2022-09-24T22:54:07.396Z,68.91
2022-09-24T22:58:12.322Z,68.62
2022-09-24T23:02:15.883Z,69.00
2022-09-24T23:06:19.444Z,68.45
2022-09-24T23:10:22.862Z,68.79
2022-09-24T23:14:27.817Z,68.78
2022-09-24T23:18:30.809Z,68.93
2022-09-24T23:22:34.423Z,69.06
2022-09-24T23:26:38.048Z,68.84
2022-09-24T23:30:43.070Z,68.70
2022-09-24T23:34:47.132Z,68.93
2022-09-24T23:38:50.696Z,68.73
2022-09-24T23:42:54.307Z,69.25
2022-09-24T23:46:58.980Z,68.73
2022-09-24T23:51:02.563Z,69.22
2022-09-24T23:55:06.429Z,69.08
2022-09-24T23:59:09.967Z,69.23
